Time;durP1;ratioP1;P1;durP2;ratioP2;P2;SDS_P1;SDS_P2;PMS_P1;PMS_P2;Temp;Humidity;BMP_temperature;BMP_pressure;BME280_temperature;BME280_humidity;BME280_pressure;Samples;Min_cycle;Max_cycle;Signal;HPM_P1;HPM_P2
2022/08/18 00:02:04;;;;;;;5.88;1.70;;;29.30;99.90;;;;;;5058257;28;20500;-48
2022/08/18 00:04:31;;;;;;;10.27;1.70;;;29.30;99.90;;;;;;5061904;28;20137;-48
2022/08/18 00:06:56;;;;;;;4.03;1.60;;;29.20;99.90;;;;;;5044468;28;20025;-48
2022/08/18 00:09:23;;;;;;;7.38;1.65;;;29.20;99.90;;;;;;5055758;28;20040;-48
2022/08/18 00:11:48;;;;;;;11.18;1.40;;;29.20;99.90;;;;;;5053115;28;20389;-48
2022/08/18 00:14:18;;;;;;;3.55;1.58;;;29.20;99.90;;;;;;5052080;28;20032;-48
2022/08/18 00:16:44;;;;;;;9.43;1.70;;;29.20;99.90;;;;;;5051989;28;20071;-47
2022/08/18 00:19:10;;;;;;;6.95;1.52;;;29.20;99.90;;;;;;5052304;28;20468;-48
2022/08/18 00:21:36;;;;;;;7.50;1.95;;;29.20;99.90;;;;;;5062063;28;20435;-47
2022/08/18 00:24:02;;;;;;;15.77;13.50;;;29.20;99.90;;;;;;5061627;28;20032;-48
2022/08/18 00:26:28;;;;;;;9.13;3.20;;;29.10;99.90;;;;;;5053525;28;20392;-48
2022/08/18 00:28:54;;;;;;;5.32;1.58;;;29.20;99.90;;;;;;5051742;28;20123;-49
2022/08/18 00:31:19;;;;;;;4.78;1.60;;;29.20;99.90;;;;;;5051608;28;20025;-49
2022/08/18 00:33:45;;;;;;;3.33;1.60;;;29.10;99.90;;;;;;5051539;28;20023;-49
2022/08/18 00:36:11;;;;;;;4.93;1.77;;;29.10;99.90;;;;;;5051655;28;20032;-49
2022/08/18 00:38:38;;;;;;;5.38;1.50;;;29.10;99.90;;;;;;5051743;28;20051;-49
2022/08/18 00:41:05;;;;;;;7.77;1.40;;;29.10;99.90;;;;;;5051561;28;20021;-49
2022/08/18 00:43:35;;;;;;;;;;;29.10;99.90;;;;;;5034192;28;20108;-48
2022/08/18 00:46:04;;;;;;;7.57;2.63;;;29.10;99.90;;;;;;5051646;28;19909;-49
2022/08/18 00:48:30;;;;;;;2.38;1.40;;;29.10;99.90;;;;;;5033502;28;20068;-49
2022/08/18 00:51:00;;;;;;;6.28;1.42;;;29.10;99.90;;;;;;5060888;28;20060;-49
2022/08/18 00:53:36;;;;;;;6.63;1.85;;;29.10;99.90;;;;;;5058479;28;20023;-49
2022/08/18 00:56:07;;;;;;;3.33;1.90;;;29.10;99.90;;;;;;5057184;28;20495;-49
2022/08/18 00:58:38;;;;;;;4.70;1.60;;;29.10;99.90;;;;;;5051680;28;20029;-49
2022/08/18 01:01:07;;;;;;;6.03;1.60;;;29.00;99.90;;;;;;5078282;22;20511;-50
2022/08/18 01:03:38;;;;;;;6.15;1.50;;;29.00;99.90;;;;;;5071132;28;20035;-50
2022/08/18 01:06:16;;;;;;;8.98;1.45;;;29.00;99.90;;;;;;5058973;28;20021;-51
2022/08/18 01:08:42;;;;;;;6.13;1.38;;;29.00;99.90;;;;;;5070805;28;20028;-51
2022/08/18 01:11:09;;;;;;;7.88;1.67;;;29.00;99.90;;;;;;5071058;28;20039;-51
2022/08/18 01:13:38;;;;;;;5.65;1.70;;;29.00;99.90;;;;;;5042535;28;20174;-51
2022/08/18 01:21:49;;;;;;;3.28;1.40;;;29.10;99.90;;;;;;5065045;28;20024;-51
2022/08/18 01:21:49;;;;;;;6.70;1.48;;;29.20;99.90;;;;;;5070936;28;20032;-51
2022/08/18 01:25:58;;;;;;;2.30;1.25;;;29.20;99.90;;;;;;5070753;28;20472;-51
2022/08/18 01:27:09;;;;;;;6.57;2.22;;;29.30;99.90;;;;;;5070016;28;20017;-51
2022/08/18 01:29:36;;;;;;;9.85;1.90;;;29.30;99.90;;;;;;5069233;28;20071;-51
2022/08/18 01:32:01;;;;;;;7.70;1.42;;;29.30;99.90;;;;;;5050489;28;20033;-51
2022/08/18 01:34:27;;;;;;;6.10;1.80;;;29.30;99.90;;;;;;5069035;28;20039;-51
2022/08/18 01:36:54;;;;;;;2.67;1.45;;;29.30;99.90;;;;;;5069170;28;20096;-51
2022/08/18 01:39:20;;;;;;;6.18;1.50;;;29.30;99.90;;;;;;5068850;28;20033;-51
2022/08/18 01:41:46;;;;;;;4.80;1.37;;;29.40;99.90;;;;;;5063970;28;20021;-51
2022/08/18 01:44:12;;;;;;;6.57;1.58;;;29.40;99.90;;;;;;5061579;28;20400;-51
2022/08/18 01:46:40;;;;;;;4.13;1.33;;;29.40;99.90;;;;;;5069552;28;20484;-51
2022/08/18 01:49:09;;;;;;;8.18;1.60;;;29.40;99.90;;;;;;5068852;28;20114;-51
2022/08/18 01:51:36;;;;;;;12.98;2.10;;;29.40;99.90;;;;;;5068836;28;20419;-51
2022/08/18 01:54:04;;;;;;;8.27;1.80;;;29.50;99.90;;;;;;5050683;28;20436;-51
2022/08/18 01:56:29;;;;;;;4.97;1.48;;;29.40;99.90;;;;;;5068626;28;20036;-51
2022/08/18 01:58:55;;;;;;;4.20;1.15;;;29.50;99.90;;;;;;5068528;28;20050;-50
2022/08/18 02:01:22;;;;;;;5.63;1.60;;;29.50;99.90;;;;;;5081105;22;20571;-47
2022/08/18 02:03:54;;;;;;;3.75;1.27;;;29.50;99.90;;;;;;5070604;28;20112;-48
2022/08/18 02:06:20;;;;;;;9.45;1.50;;;29.50;99.90;;;;;;5070619;28;20024;-47
2022/08/18 02:08:47;;;;;;;4.00;1.30;;;29.50;99.90;;;;;;5070405;28;20029;-47
2022/08/18 02:11:13;;;;;;;11.02;2.22;;;29.50;99.90;;;;;;5070648;28;20375;-48
2022/08/18 02:13:39;;;;;;;9.07;1.88;;;29.50;99.90;;;;;;5070602;28;20024;-47
2022/08/18 02:16:06;;;;;;;8.10;1.38;;;29.50;99.90;;;;;;5069797;28;20024;-47
2022/08/18 02:18:34;;;;;;;5.30;1.40;;;29.50;99.90;;;;;;5069140;28;20051;-47
2022/08/18 02:21:11;;;;;;;4.20;1.15;;;29.50;99.90;;;;;;5070037;28;20418;-47
2022/08/18 02:23:37;;;;;;;6.53;1.33;;;29.50;99.90;;;;;;5071144;28;20021;-47
2022/08/18 02:26:06;;;;;;;6.45;1.33;;;29.50;99.90;;;;;;5070697;28;20056;-47
2022/08/18 02:28:32;;;;;;;6.32;1.70;;;29.50;99.90;;;;;;5052440;28;20049;-47
2022/08/18 02:31:06;;;;;;;6.30;1.67;;;29.50;99.90;;;;;;5070536;28;20028;-47
2022/08/18 02:33:33;;;;;;;7.35;1.27;;;29.50;99.90;;;;;;5070562;28;20028;-47
2022/08/18 02:35:59;;;;;;;6.27;1.77;;;29.50;99.90;;;;;;5070418;28;20036;-46
2022/08/18 02:38:25;;;;;;;3.67;1.63;;;29.50;99.90;;;;;;5070519;28;20479;-49
2022/08/18 02:40:59;;;;;;;6.53;1.58;;;29.50;99.90;;;;;;5070401;28;20025;-46
2022/08/18 02:43:26;;;;;;;4.68;1.27;;;29.50;99.90;;;;;;5071065;28;20050;-47
2022/08/18 02:45:52;;;;;;;5.20;1.50;;;29.50;99.90;;;;;;5074080;28;20025;-47
2022/08/18 02:48:23;;;;;;;5.30;1.40;;;29.50;99.90;;;;;;5073896;28;20044;-47
2022/08/18 02:50:49;;;;;;;4.57;1.50;;;29.50;99.90;;;;;;5073914;28;20495;-47
2022/08/18 02:53:22;;;;;;;5.45;1.80;;;29.50;99.90;;;;;;5073848;28;20020;-46
2022/08/18 02:55:48;;;;;;;7.80;1.40;;;29.50;99.90;;;;;;5073899;28;20028;-50
2022/08/18 02:58:14;;;;;;;4.53;1.30;;;29.50;99.90;;;;;;5073742;28;20025;-47
2022/08/18 03:00:41;;;;;;;6.70;1.70;;;29.40;99.90;;;;;;5074460;28;20049;-46
2022/08/18 03:03:07;;;;;;;4.00;1.20;;;29.50;99.90;;;;;;5074095;28;20399;-46
2022/08/18 03:05:33;;;;;;;13.85;1.70;;;29.50;99.90;;;;;;5073641;28;20059;-47
2022/08/18 03:07:59;;;;;;;9.13;2.03;;;29.40;99.90;;;;;;5073509;28;20032;-46
2022/08/18 03:10:25;;;;;;;5.45;1.80;;;29.40;99.90;;;;;;5073687;28;20082;-47
2022/08/18 03:12:52;;;;;;;3.88;1.88;;;29.40;99.90;;;;;;5073657;28;20025;-47
2022/08/18 03:15:17;;;;;;;8.35;1.65;;;29.40;99.90;;;;;;5073617;28;20145;-47
2022/08/18 03:17:43;;;;;;;3.55;1.88;;;29.40;99.90;;;;;;5055721;28;20539;-47
2022/08/18 03:20:09;;;;;;;8.32;2.47;;;29.30;99.90;;;;;;5073464;28;20028;-47
2022/08/18 03:22:37;;;;;;;5.13;2.00;;;29.30;99.90;;;;;;5073494;28;20495;-48
2022/08/18 03:25:03;;;;;;;7.35;2.28;;;29.30;99.90;;;;;;5073411;28;20028;-47
2022/08/18 03:27:29;;;;;;;5.20;1.60;;;29.30;99.90;;;;;;5073164;28;20507;-47
2022/08/18 03:29:55;;;;;;;9.25;2.08;;;29.20;99.90;;;;;;5073222;28;20029;-47
2022/08/18 03:32:21;;;;;;;4.18;1.60;;;29.20;99.90;;;;;;5073235;28;20020;-49
2022/08/18 03:34:47;;;;;;;4.45;2.20;;;29.20;99.90;;;;;;5072965;28;20545;-47
2022/08/18 03:37:14;;;;;;;9.85;2.03;;;29.20;99.90;;;;;;5073275;28;20099;-47
2022/08/18 03:39:41;;;;;;;8.98;1.85;;;29.20;99.90;;;;;;5073109;28;20032;-47
2022/08/18 03:42:06;;;;;;;6.78;1.77;;;29.10;99.90;;;;;;5072703;28;20024;-47
2022/08/18 03:44:37;;;;;;;2.75;1.40;;;29.10;99.90;;;;;;5072963;28;20025;-47
2022/08/18 03:47:07;;;;;;;5.90;2.03;;;29.10;99.90;;;;;;5072766;28;20044;-47
2022/08/18 03:49:35;;;;;;;6.30;1.70;;;29.10;99.90;;;;;;5072569;28;20041;-47
2022/08/18 03:52:01;;;;;;;11.32;1.90;;;29.00;99.90;;;;;;5072600;28;20023;-48
2022/08/18 03:54:30;;;;;;;5.50;1.58;;;29.00;99.90;;;;;;5072247;28;20537;-47
2022/08/18 03:56:57;;;;;;;6.85;1.83;;;29.00;99.90;;;;;;5072458;28;20104;-47
2022/08/18 04:01:54;;;;;;;4.60;1.70;;;29.00;99.90;;;;;;5051396;28;20060;-49
2022/08/18 04:04:23;;;;;;;9.88;2.08;;;29.00;99.90;;;;;;5052385;28;20080;-49
2022/08/18 04:07:06;;;;;;;3.97;1.75;;;29.00;99.90;;;;;;5052372;28;20045;-49
2022/08/18 04:09:33;;;;;;;2.90;1.30;;;29.00;99.90;;;;;;5052375;28;20037;-49
2022/08/18 04:12:11;;;;;;;7.05;1.95;;;29.00;99.90;;;;;;5052331;28;20025;-49
2022/08/18 04:14:37;;;;;;;;;;;29.00;99.90;;;;;;5052781;28;20033;-49
2022/08/18 04:17:04;;;;;;;5.05;1.63;;;29.00;99.90;;;;;;5034409;28;19905;-48
2022/08/18 04:19:32;;;;;;;10.02;1.88;;;29.00;99.90;;;;;;5052084;28;20100;-48
2022/08/18 04:21:57;;;;;;;7.68;1.90;;;29.00;99.90;;;;;;5052191;28;20024;-48
2022/08/18 04:24:24;;;;;;;6.22;1.60;;;29.00;99.90;;;;;;5034190;28;20407;-48
2022/08/18 04:26:50;;;;;;;6.10;1.63;;;28.90;99.90;;;;;;5051982;28;20074;-48
2022/08/18 04:29:19;;;;;;;3.70;1.42;;;28.90;99.90;;;;;;5052097;28;20400;-49
2022/08/18 04:31:46;;;;;;;9.07;1.90;;;28.90;99.90;;;;;;5034231;28;20028;-48
2022/08/18 04:34:12;;;;;;;8.15;1.77;;;28.90;99.90;;;;;;5051888;28;20028;-48
2022/08/18 04:36:39;;;;;;;4.88;1.45;;;28.90;99.90;;;;;;5051843;28;20067;-48
2022/08/18 04:39:08;;;;;;;7.95;2.40;;;28.90;99.90;;;;;;5052041;28;20023;-48
2022/08/18 04:41:35;;;;;;;5.97;1.58;;;28.90;99.90;;;;;;5051850;28;20106;-49
2022/08/18 04:44:05;;;;;;;6.53;1.42;;;28.90;99.90;;;;;;5051714;28;20029;-48
2022/08/18 04:46:36;;;;;;;8.13;1.60;;;28.90;99.90;;;;;;5051858;28;20482;-49
2022/08/18 04:49:02;;;;;;;9.85;1.75;;;28.90;99.90;;;;;;5051707;28;20041;-49
2022/08/18 04:51:29;;;;;;;6.05;1.65;;;28.90;99.90;;;;;;5051750;28;20032;-49
2022/08/18 04:53:56;;;;;;;7.78;2.15;;;28.90;99.90;;;;;;5051653;28;20033;-48
2022/08/18 04:56:33;;;;;;;6.30;1.70;;;28.90;99.90;;;;;;5051669;28;20464;-49
2022/08/18 04:59:05;;;;;;;8.30;1.50;;;28.90;99.90;;;;;;5051642;28;20029;-49
2022/08/18 05:01:37;;;;;;;9.10;1.95;;;28.90;99.90;;;;;;5051381;28;20382;-48
2022/08/18 05:04:04;;;;;;;8.75;1.50;;;28.90;99.90;;;;;;5051530;28;20032;-48
2022/08/18 05:06:30;;;;;;;4.47;1.70;;;28.90;99.90;;;;;;5050780;28;20028;-49
2022/08/18 05:09:03;;;;;;;9.30;1.67;;;28.90;99.90;;;;;;5051207;28;20095;-48
2022/08/18 05:11:33;;;;;;;6.32;1.60;;;28.80;99.90;;;;;;5051378;28;20013;-48
2022/08/18 05:14:01;;;;;;;12.85;1.77;;;28.80;99.90;;;;;;5051314;28;20489;-48
2022/08/18 05:16:31;;;;;;;9.00;1.77;;;28.80;99.90;;;;;;5051338;28;20025;-48
2022/08/18 05:18:58;;;;;;;2.83;1.50;;;28.80;99.90;;;;;;5051479;28;20021;-48
2022/08/18 05:21:25;;;;;;;4.95;1.65;;;28.80;99.90;;;;;;5051220;28;20048;-49
2022/08/18 05:23:50;;;;;;;7.60;1.42;;;28.80;99.90;;;;;;5051392;28;20040;-48
2022/08/18 05:26:19;;;;;;;8.82;2.03;;;28.80;99.90;;;;;;5051340;28;20021;-48
2022/08/18 05:28:45;;;;;;;12.13;1.60;;;28.80;99.90;;;;;;5051109;28;20099;-48
2022/08/18 05:31:17;;;;;;;10.30;1.67;;;28.80;99.90;;;;;;5051047;28;20033;-49
2022/08/18 05:33:44;;;;;;;5.88;1.50;;;28.80;99.90;;;;;;5051230;28;20033;-48
2022/08/18 05:36:28;;;;;;;6.60;1.30;;;28.80;99.90;;;;;;5051066;28;20067;-49
2022/08/18 05:39:20;;;;;;;4.78;1.73;;;28.70;99.90;;;;;;5051097;28;20025;-48
2022/08/18 05:42:17;;;;;;;11.70;1.70;;;28.70;99.90;;;;;;5049641;28;20029;-48
2022/08/18 05:44:44;;;;;;;;;;;28.70;99.90;;;;;;5051362;28;20078;-48
2022/08/18 05:47:11;;;;;;;;;;;28.70;99.90;;;;;;5051339;28;19904;-49
2022/08/18 05:49:38;;;;;;;3.00;1.75;;;28.70;99.90;;;;;;5050836;28;19913;-49
2022/08/18 05:52:13;;;;;;;9.27;1.52;;;28.70;99.90;;;;;;5050750;28;20033;-49
2022/08/18 05:57:59;;;;;;;8.90;1.98;;;28.70;99.90;;;;;;5051054;28;20043;-49
2022/08/18 06:00:27;;;;;;;2.88;1.30;;;28.70;99.90;;;;;;5042428;28;20186;-50
2022/08/18 06:03:02;;;;;;;3.42;1.48;;;28.60;99.90;;;;;;5050979;28;20025;-49
2022/08/18 06:05:32;;;;;;;3.22;1.58;;;28.60;99.90;;;;;;5050776;28;20554;-49
2022/08/18 06:08:09;;;;;;;7.13;2.03;;;28.60;99.90;;;;;;5050741;28;20067;-49
2022/08/18 06:10:36;;;;;;;8.13;2.42;;;28.60;99.90;;;;;;5050866;28;20100;-49
2022/08/18 06:13:07;;;;;;;5.60;1.20;;;28.60;99.90;;;;;;5050654;28;20116;-49
2022/08/18 06:15:52;;;;;;;4.93;1.38;;;28.60;99.90;;;;;;5050631;28;20160;-50
2022/08/18 06:18:26;;;;;;;5.25;2.00;;;28.60;99.90;;;;;;5052640;28;20025;-50
2022/08/18 06:21:08;;;;;;;8.93;1.50;;;28.60;99.90;;;;;;5054695;28;20036;-50
2022/08/18 06:24:03;;;;;;;7.38;1.90;;;28.60;99.90;;;;;;5054374;28;20021;-50
2022/08/18 06:27:02;;;;;;;4.15;1.63;;;28.60;99.90;;;;;;5054512;28;20021;-49
2022/08/18 06:29:49;;;;;;;11.90;2.95;;;28.50;99.90;;;;;;5054050;28;20040;-49
2022/08/18 06:32:40;;;;;;;3.38;1.52;;;28.60;99.90;;;;;;5054148;28;20036;-49
2022/08/18 06:35:41;;;;;;;4.22;1.52;;;28.50;99.90;;;;;;5054273;28;20036;-49
2022/08/18 06:38:39;;;;;;;12.10;2.60;;;28.60;99.90;;;;;;5054311;28;20519;-49
2022/08/18 06:41:17;;;;;;;4.55;1.73;;;28.60;99.90;;;;;;5054114;28;20049;-48
2022/08/18 06:44:04;;;;;;;4.93;2.05;;;28.60;99.90;;;;;;5053967;28;20473;-48
2022/08/18 06:46:52;;;;;;;7.25;2.17;;;28.60;99.90;;;;;;5053971;28;20039;-48
2022/08/18 06:49:40;;;;;;;5.30;1.75;;;28.60;99.90;;;;;;5053895;28;20374;-48
2022/08/18 06:52:21;;;;;;;5.60;1.60;;;28.70;99.90;;;;;;5053764;28;20036;-49
2022/08/18 06:54:47;;;;;;;6.28;1.65;;;28.70;99.90;;;;;;5053837;28;20544;-48
2022/08/18 06:57:35;;;;;;;9.57;2.35;;;28.70;99.90;;;;;;5053781;28;20056;-48
2022/08/18 07:00:18;;;;;;;7.25;1.90;;;28.70;99.90;;;;;;5053401;28;20045;-48
2022/08/18 07:03:01;;;;;;;4.32;1.52;;;28.70;99.90;;;;;;5053613;28;20025;-48
2022/08/18 07:05:33;;;;;;;8.65;2.25;;;28.70;99.90;;;;;;5053687;28;20032;-50
2022/08/18 07:08:04;;;;;;;5.15;1.60;;;28.70;99.90;;;;;;5053393;28;20025;-48
2022/08/18 07:10:40;;;;;;;5.40;2.67;;;28.80;99.90;;;;;;5053482;28;20025;-48
2022/08/18 07:13:13;;;;;;;8.70;2.60;;;28.80;99.90;;;;;;5053364;28;20025;-49
2022/08/18 07:15:39;;;;;;;5.18;2.53;;;28.80;99.90;;;;;;5053323;28;20028;-49
2022/08/18 07:18:07;;;;;;;6.70;1.90;;;28.80;99.90;;;;;;5053140;28;20028;-49
2022/08/18 07:20:59;;;;;;;10.07;2.30;;;28.80;99.90;;;;;;5053317;28;20090;-49
2022/08/18 07:23:37;;;;;;;8.45;2.65;;;28.90;99.90;;;;;;5035493;28;20366;-49
2022/08/18 07:26:16;;;;;;;8.30;2.75;;;28.90;99.90;;;;;;5053193;28;20124;-49
2022/08/18 07:28:48;;;;;;;5.70;2.15;;;28.90;99.90;;;;;;5052487;28;20029;-49
2022/08/18 07:31:33;;;;;;;6.00;2.38;;;28.90;99.90;;;;;;5052862;28;20024;-50
2022/08/18 07:34:08;;;;;;;5.90;1.80;;;28.90;99.90;;;;;;5053048;28;20111;-49
2022/08/18 07:36:42;;;;;;;6.53;2.00;;;29.00;99.90;;;;;;5053020;28;20021;-49
2022/08/18 07:39:48;;;;;;;5.78;2.92;;;29.00;99.90;;;;;;5052915;28;20025;-49
2022/08/18 07:42:33;;;;;;;5.63;2.23;;;29.00;99.90;;;;;;5019674;28;20056;-49
2022/08/18 07:44:59;;;;;;;5.32;2.40;;;29.00;99.90;;;;;;5052951;28;20468;-49
2022/08/18 07:47:44;;;;;;;6.18;2.42;;;29.10;99.90;;;;;;5052908;28;20032;-50
2022/08/18 07:50:10;;;;;;;17.45;3.67;;;29.10;99.90;;;;;;5052643;28;20037;-49
2022/08/18 07:52:41;;;;;;;5.63;2.60;;;29.10;99.90;;;;;;5052738;28;20115;-49
2022/08/18 07:55:27;;;;;;;5.43;2.55;;;29.10;99.90;;;;;;5018401;28;20037;-49
2022/08/18 07:58:16;;;;;;;7.63;3.45;;;29.20;99.90;;;;;;5035981;28;20112;-49
2022/08/18 08:00:48;;;;;;;9.90;3.00;;;29.20;99.90;;;;;;5052369;28;20037;-49
2022/08/18 08:03:32;;;;;;;8.85;3.45;;;29.20;99.90;;;;;;5052436;28;20124;-49
2022/08/18 08:06:04;;;;;;;8.48;3.20;;;29.20;99.90;;;;;;5052664;28;20452;-49
2022/08/18 08:08:30;;;;;;;17.05;3.47;;;29.30;99.90;;;;;;5052655;28;20380;-49
2022/08/18 08:11:16;;;;;;;12.52;2.97;;;29.30;99.90;;;;;;5052203;28;20021;-49
2022/08/18 08:14:08;;;;;;;10.80;2.40;;;29.10;99.90;;;;;;5052168;28;20017;-49
2022/08/18 08:16:48;;;;;;;8.55;1.90;;;29.00;99.90;;;;;;5020855;28;20040;-50
2022/08/18 08:19:33;;;;;;;14.40;3.20;;;28.80;99.90;;;;;;5052305;28;20111;-50
2022/08/18 08:22:19;;;;;;;10.00;2.40;;;28.60;99.90;;;;;;5052257;28;20025;-50
2022/08/18 08:25:00;;;;;;;10.35;2.72;;;28.40;99.90;;;;;;5051689;28;20029;-49
2022/08/18 08:27:38;;;;;;;9.90;2.63;;;28.30;99.90;;;;;;5051833;28;20032;-50
2022/08/18 08:30:10;;;;;;;;;;;28.20;99.90;;;;;;5052344;28;20037;-50
2022/08/18 08:33:00;;;;;;;14.80;3.15;;;28.10;99.90;;;;;;5051884;28;19904;-50
2022/08/18 08:35:40;;;;;;;10.57;2.75;;;28.00;99.90;;;;;;5051731;28;20048;-49
2022/08/18 08:38:31;;;;;;;9.05;2.92;;;27.90;99.90;;;;;;5051970;28;20029;-49
2022/08/18 08:41:04;;;;;;;11.68;3.45;;;27.80;99.90;;;;;;5051686;28;20017;-49
2022/08/18 08:43:39;;;;;;;10.85;3.42;;;27.80;99.90;;;;;;5033810;28;20059;-49
2022/08/18 08:46:28;;;;;;;10.30;3.67;;;27.80;99.90;;;;;;5051592;28;20120;-50
2022/08/18 08:49:37;;;;;;;14.88;3.83;;;27.70;99.90;;;;;;5051474;28;20045;-49
2022/08/18 08:52:08;;;;;;;18.23;3.85;;;27.70;99.90;;;;;;5051826;28;20044;-50
2022/08/18 08:55:02;;;;;;;16.55;3.92;;;27.70;99.90;;;;;;5051602;28;20029;-50
2022/08/18 08:57:56;;;;;;;17.92;3.95;;;27.70;99.90;;;;;;5051450;28;20032;-50
2022/08/18 09:00:23;;;;;;;13.43;3.72;;;27.60;99.90;;;;;;5045027;28;20045;-50
2022/08/18 09:03:05;;;;;;;22.83;8.38;;;27.60;99.90;;;;;;5039504;28;20048;-49
2022/08/18 09:05:46;;;;;;;16.48;4.90;;;27.60;99.90;;;;;;5039708;28;20053;-50
2022/08/18 09:08:39;;;;;;;14.90;4.78;;;27.60;99.90;;;;;;5051240;28;20469;-50
2022/08/18 09:11:33;;;;;;;10.73;4.10;;;27.70;99.90;;;;;;5049154;28;20067;-50
2022/08/18 09:14:17;;;;;;;17.33;4.88;;;27.60;99.90;;;;;;5050354;28;20013;-50
2022/08/18 09:17:07;;;;;;;13.18;4.82;;;27.60;99.90;;;;;;5051062;28;20067;-50
2022/08/18 09:19:52;;;;;;;16.80;5.28;;;27.70;99.90;;;;;;5044779;28;20033;-49
2022/08/18 09:22:42;;;;;;;28.75;5.43;;;27.70;99.90;;;;;;5030997;28;20032;-50
2022/08/18 09:25:28;;;;;;;22.02;4.70;;;27.80;99.90;;;;;;5033865;28;20048;-50
2022/08/18 09:28:08;;;;;;;15.05;5.88;;;27.80;99.90;;;;;;5049632;28;20457;-50
2022/08/18 09:31:14;;;;;;;16.17;5.13;;;27.80;99.90;;;;;;5049158;28;20438;-54
2022/08/18 09:33:43;;;;;;;13.77;4.67;;;27.80;99.90;;;;;;5050464;28;20035;-50
2022/08/18 09:36:12;;;;;;;15.68;6.82;;;27.90;99.90;;;;;;5049131;28;20025;-50
2022/08/18 09:41:52;;;;;;;16.63;4.85;;;27.90;99.90;;;;;;5047027;28;20090;-55
2022/08/18 09:44:39;;;;;;;16.50;5.00;;;28.00;99.90;;;;;;5032324;28;20472;-54
2022/08/18 09:47:06;;;;;;;16.02;5.45;;;28.00;99.90;;;;;;5048334;28;20021;-55
2022/08/18 09:49:45;;;;;;;14.55;6.05;;;28.10;99.90;;;;;;5050011;28;20114;-55
2022/08/18 09:52:20;;;;;;;17.85;5.45;;;28.20;99.90;;;;;;5047151;28;20465;-53
2022/08/18 09:55:00;;;;;;;15.60;5.13;;;28.30;99.90;;;;;;5051851;28;20099;-51
2022/08/18 09:57:37;;;;;;;18.35;5.05;;;28.30;99.90;;;;;;5052032;28;20045;-50
2022/08/18 10:00:04;;;;;;;;;;;28.40;99.90;;;;;;5051943;28;20071;-52
2022/08/18 10:02:30;;;;;;;19.50;5.57;;;28.40;99.90;;;;;;5054211;28;19913;-49
2022/08/18 10:05:15;;;;;;;21.75;5.22;;;28.50;99.90;;;;;;5028350;28;20025;-50
2022/08/18 10:07:55;;;;;;;14.43;4.75;;;28.50;99.90;;;;;;5054103;28;20013;-50
2022/08/18 10:10:43;;;;;;;14.15;4.80;;;28.60;99.90;;;;;;5051879;28;20033;-50
2022/08/18 10:13:28;;;;;;;12.13;4.18;;;28.60;99.90;;;;;;5052693;28;20025;-49
2022/08/18 10:16:08;;;;;;;16.63;5.78;;;28.70;99.90;;;;;;5052514;28;20568;-52
2022/08/18 10:18:37;;;;;;;14.05;4.93;;;28.70;99.90;;;;;;5053510;28;20067;-51
2022/08/18 10:21:27;;;;;;;19.65;5.05;;;28.80;99.90;;;;;;5051937;28;20040;-49
2022/08/18 10:24:18;;;;;;;27.90;5.93;;;28.80;99.90;;;;;;5054149;28;20090;-49
2022/08/18 10:26:49;;;;;;;12.73;4.30;;;28.70;99.90;;;;;;5054184;28;20032;-49
2022/08/18 10:29:27;;;;;;;13.30;4.55;;;28.80;99.90;;;;;;5053960;28;20040;-49
2022/08/18 10:31:55;;;;;;;12.32;4.93;;;28.80;99.90;;;;;;5053877;28;20017;-49
2022/08/18 10:34:44;;;;;;;17.42;5.30;;;28.80;99.90;;;;;;5053859;28;20025;-48
2022/08/18 10:37:20;;;;;;;13.40;4.60;;;28.70;99.90;;;;;;5034298;28;20025;-50
2022/08/18 10:39:59;;;;;;;16.85;5.03;;;28.60;99.90;;;;;;5034048;28;20025;-49
2022/08/18 10:42:38;;;;;;;18.67;4.88;;;28.60;99.90;;;;;;5034025;28;20150;-50
2022/08/18 10:45:10;;;;;;;12.80;4.78;;;28.60;99.90;;;;;;5016077;28;20036;-50
2022/08/18 10:47:36;;;;;;;9.90;4.05;;;28.50;99.90;;;;;;5033926;28;20045;-50
2022/08/18 10:50:07;;;;;;;7.25;4.57;;;28.40;99.90;;;;;;5033805;28;20073;-50
2022/08/18 10:53:02;;;;;;;15.30;4.88;;;28.40;99.90;;;;;;5033694;28;20037;-49
2022/08/18 10:55:53;;;;;;;10.82;4.45;;;28.40;99.90;;;;;;5033528;28;20056;-49
2022/08/18 10:58:21;;;;;;;17.80;4.85;;;28.50;99.90;;;;;;5033533;28;20084;-49
2022/08/18 11:00:59;;;;;;;17.98;5.65;;;28.60;99.90;;;;;;5042020;28;20045;-51
2022/08/18 11:03:40;;;;;;;15.52;4.72;;;28.70;99.90;;;;;;5047968;28;21145;-51
2022/08/18 11:06:12;;;;;;;17.50;4.95;;;28.90;99.90;;;;;;5049490;28;20362;-51
2022/08/18 11:08:47;;;;;;;17.45;4.72;;;29.00;99.90;;;;;;5052867;28;20048;-50
2022/08/18 11:11:18;;;;;;;15.00;5.15;;;29.20;99.90;;;;;;5051765;28;20373;-50
2022/08/18 11:13:59;;;;;;;17.23;4.50;;;29.30;99.90;;;;;;5052814;28;20112;-50
2022/08/18 11:16:36;;;;;;;9.40;4.30;;;29.40;99.90;;;;;;5051275;28;20028;-50
2022/08/18 11:19:11;;;;;;;17.05;5.88;;;29.40;99.90;;;;;;5049914;28;20415;-51
2022/08/18 11:21:39;;;;;;;9.52;5.25;;;29.40;99.90;;;;;;5052548;28;20031;-50
2022/08/18 11:24:14;;;;;;;14.00;4.40;;;29.50;99.90;;;;;;5053165;28;20033;-50
2022/08/18 11:26:41;;;;;;;12.88;4.78;;;29.50;99.90;;;;;;5049551;28;20037;-50
2022/08/18 11:29:25;;;;;;;11.52;4.13;;;29.50;99.90;;;;;;5052851;28;20037;-50
2022/08/18 11:32:07;;;;;;;8.73;4.00;;;29.40;99.90;;;;;;5052788;28;20036;-49
2022/08/18 11:34:41;;;;;;;13.52;3.72;;;29.40;99.90;;;;;;5052995;28;20070;-49
2022/08/18 11:37:20;;;;;;;21.25;5.13;;;29.30;99.90;;;;;;5052825;28;20032;-50
2022/08/18 11:39:51;;;;;;;18.25;5.65;;;29.30;99.90;;;;;;5051896;28;20029;-49
2022/08/18 11:42:25;;;;;;;13.27;4.70;;;29.40;99.90;;;;;;5049802;28;20017;-50
2022/08/18 11:44:53;;;;;;;14.73;5.57;;;29.40;99.90;;;;;;5051045;28;20025;-50
2022/08/18 11:47:21;;;;;;;12.20;5.88;;;29.50;99.90;;;;;;5051802;28;20417;-50
2022/08/18 11:49:52;;;;;;;;;;;29.50;99.90;;;;;;5051779;28;20044;-50
2022/08/18 11:52:28;;;;;;;12.88;4.78;;;29.50;99.90;;;;;;5052528;28;20341;-50
2022/08/18 11:55:01;;;;;;;13.43;5.05;;;29.60;99.90;;;;;;5052646;28;20421;-50
2022/08/18 11:57:53;;;;;;;10.63;4.72;;;29.70;99.90;;;;;;5052681;28;20468;-50
2022/08/18 12:00:36;;;;;;;9.48;4.07;;;29.70;99.90;;;;;;5052358;28;20404;-51
2022/08/18 12:03:05;;;;;;;14.30;4.93;;;29.70;99.90;;;;;;5052451;28;20021;-50
2022/08/18 12:05:42;;;;;;;13.93;4.45;;;29.80;99.90;;;;;;5046114;28;20116;-50
2022/08/18 12:08:21;;;;;;;12.32;4.05;;;29.90;99.90;;;;;;5037864;28;20033;-50
2022/08/18 12:10:47;;;;;;;11.52;4.50;;;29.90;99.90;;;;;;5047880;28;20046;-50
2022/08/18 12:13:24;;;;;;;10.68;4.97;;;30.00;99.90;;;;;;5051678;28;20243;-52
2022/08/18 12:16:12;;;;;;;10.85;5.43;;;30.00;99.90;;;;;;5043516;28;20032;-50
2022/08/18 12:18:39;;;;;;;12.32;5.70;;;30.10;99.90;;;;;;5047010;28;20120;-50
2022/08/18 12:21:05;;;;;;;10.75;4.90;;;30.20;99.90;;;;;;5050683;28;20373;-49
2022/08/18 12:23:35;;;;;;;14.32;5.63;;;30.30;99.90;;;;;;5044357;28;20112;-51
2022/08/18 12:26:01;;;;;;;10.77;5.10;;;30.30;99.90;;;;;;5045798;28;20093;-52
2022/08/18 12:28:27;;;;;;;11.57;4.60;;;30.30;99.90;;;;;;5036624;28;20021;-51
2022/08/18 12:30:53;;;;;;;17.50;4.70;;;30.40;99.90;;;;;;5040129;28;20041;-50
2022/08/18 12:33:18;;;;;;;11.38;4.90;;;30.40;99.90;;;;;;5037193;28;20073;-52
2022/08/18 12:35:44;;;;;;;13.10;5.15;;;30.50;99.90;;;;;;5025596;28;20072;-50
2022/08/18 12:38:12;;;;;;;10.60;3.97;;;30.60;99.90;;;;;;5049805;28;20447;-51
2022/08/18 12:40:38;;;;;;;10.27;4.13;;;30.60;99.90;;;;;;5029860;28;20459;-51
2022/08/18 12:43:04;;;;;;;9.43;4.20;;;30.70;99.90;;;;;;5035100;28;20067;-51
2022/08/18 12:45:30;;;;;;;10.98;3.97;;;30.70;99.90;;;;;;5047272;28;20021;-51
2022/08/18 12:47:56;;;;;;;7.80;4.15;;;30.80;99.90;;;;;;5051498;28;20032;-50
2022/08/18 12:50:22;;;;;;;16.17;4.00;;;30.80;99.90;;;;;;5050703;28;20044;-51
2022/08/18 12:52:48;;;;;;;15.27;4.95;;;30.80;99.90;;;;;;5049219;28;20033;-51
2022/08/18 12:55:15;;;;;;;11.75;3.83;;;30.80;99.90;;;;;;5062799;28;20024;-51
2022/08/18 12:57:42;;;;;;;11.82;4.57;;;30.80;99.90;;;;;;5051844;28;20100;-50
2022/08/18 13:00:09;;;;;;;14.88;4.65;;;30.90;99.90;;;;;;5051192;28;20078;-52
2022/08/18 13:02:34;;;;;;;11.10;4.05;;;31.00;99.90;;;;;;5051185;28;20037;-53
2022/08/18 13:05:00;;;;;;;13.68;5.10;;;30.90;99.90;;;;;;5048943;28;20040;-52
2022/08/18 13:07:26;;;;;;;15.00;5.13;;;31.00;99.90;;;;;;5039778;28;20039;-51
2022/08/18 13:09:52;;;;;;;18.60;5.20;;;31.00;99.90;;;;;;5051090;28;20037;-51
2022/08/18 13:12:18;;;;;;;12.98;5.22;;;31.00;99.90;;;;;;5051274;28;20094;-51
2022/08/18 13:14:44;;;;;;;18.67;6.35;;;31.10;99.90;;;;;;5050980;28;20021;-51
2022/08/18 13:17:11;;;;;;;15.27;4.72;;;31.10;99.90;;;;;;5016632;28;20024;-51
2022/08/18 13:19:37;;;;;;;12.07;5.00;;;31.10;99.90;;;;;;5051073;28;20036;-51
2022/08/18 13:22:03;;;;;;;18.20;5.80;;;31.10;99.90;;;;;;5049277;28;20037;-51
2022/08/18 13:24:29;;;;;;;14.20;5.28;;;31.10;99.90;;;;;;5049639;28;20300;-52
2022/08/18 13:26:55;;;;;;;12.10;5.22;;;31.10;99.90;;;;;;5036537;28;20071;-53
2022/08/18 13:29:21;;;;;;;15.50;5.35;;;31.10;99.90;;;;;;5042019;28;20025;-50